Time;durP1;ratioP1;P1;durP2;ratioP2;P2;SDS_P1;SDS_P2;PMS_P1;PMS_P2;Temp;Humidity;BMP_temperature;BMP_pressure;BME280_temperature;BME280_humidity;BME280_pressure;Samples;Min_cycle;Max_cycle;Signal;HPM_P1;HPM_P2
2024/01/31 00:00:48;;;;;;;15.83;11.17;;;10.40;99.90;;;;;;5018892;28;21028;-73
2024/01/31 00:03:14;;;;;;;13.70;10.37;;;10.40;99.90;;;;;;5017351;28;20452;-73
2024/01/31 00:05:43;;;;;;;13.23;10.57;;;10.40;99.90;;;;;;5002364;28;20477;-73
2024/01/31 00:08:15;;;;;;;14.43;11.10;;;10.40;99.90;;;;;;5019816;28;20520;-73
2024/01/31 00:10:41;;;;;;;14.17;10.17;;;10.40;99.90;;;;;;5019063;28;20455;-73
2024/01/31 00:13:10;;;;;;;18.03;11.20;;;10.40;99.90;;;;;;5018907;28;20451;-73
2024/01/31 00:15:38;;;;;;;15.73;10.93;;;10.40;99.90;;;;;;5015108;28;20455;-72
2024/01/31 00:18:07;;;;;;;14.10;11.00;;;10.40;99.90;;;;;;5016608;28;21855;-72
2024/01/31 00:20:33;;;;;;;13.10;10.30;;;10.40;99.90;;;;;;5014542;28;20443;-72
2024/01/31 00:23:01;;;;;;;17.30;12.30;;;10.40;99.90;;;;;;5015593;28;20460;-72
2024/01/31 00:25:29;;;;;;;16.83;11.37;;;10.30;99.90;;;;;;5009121;28;20521;-72
2024/01/31 00:28:00;;;;;;;17.00;11.47;;;10.40;99.90;;;;;;5018015;28;20518;-71
2024/01/31 00:30:29;;;;;;;15.07;10.87;;;10.40;99.90;;;;;;5013938;28;20476;-71
2024/01/31 00:32:57;;;;;;;13.27;10.50;;;10.30;99.90;;;;;;5002393;28;20537;-70
2024/01/31 00:35:25;;;;;;;19.40;11.77;;;10.30;99.90;;;;;;5001163;28;20956;-71
2024/01/31 00:37:55;;;;;;;15.60;10.20;;;10.30;99.90;;;;;;4981447;28;20457;-71
2024/01/31 00:40:20;;;;;;;15.23;11.37;;;10.30;99.90;;;;;;4981940;28;20454;-70
2024/01/31 00:42:49;;;;;;;13.97;10.30;;;10.40;99.90;;;;;;4998724;28;20954;-71
2024/01/31 00:45:15;;;;;;;14.13;10.73;;;10.30;99.90;;;;;;5020770;28;20470;-70
2024/01/31 00:47:43;;;;;;;15.90;11.70;;;10.30;99.90;;;;;;5020726;28;20472;-71
2024/01/31 00:50:13;;;;;;;14.30;10.23;;;10.30;99.90;;;;;;5020846;28;20531;-72
2024/01/31 00:52:42;;;;;;;16.50;10.83;;;10.30;99.90;;;;;;5021365;28;20440;-71
2024/01/31 00:55:08;;;;;;;13.63;10.10;;;10.30;99.90;;;;;;4988631;28;20987;-71
2024/01/31 00:57:34;;;;;;;13.10;10.00;;;10.30;99.90;;;;;;5021333;28;20412;-71
2024/01/31 01:00:08;;;;;;;12.90;10.23;;;10.30;99.90;;;;;;5005279;28;20428;-71
2024/01/31 01:02:42;;;;;;;11.00;8.90;;;10.30;99.90;;;;;;5020395;28;20427;-71
2024/01/31 01:05:08;;;;;;;12.83;9.77;;;10.30;99.90;;;;;;5022307;28;20505;-71
2024/01/31 01:07:40;;;;;;;12.63;9.10;;;10.30;99.90;;;;;;5020622;28;20475;-71
2024/01/31 01:10:11;;;;;;;14.37;9.53;;;10.30;99.90;;;;;;4988297;28;20455;-71
2024/01/31 01:12:38;;;;;;;12.53;10.13;;;10.30;99.90;;;;;;5001199;28;20432;-71
2024/01/31 01:15:07;;;;;;;14.00;10.57;;;10.30;99.90;;;;;;4984880;28;20478;-71
2024/01/31 01:17:35;;;;;;;12.17;9.03;;;10.30;99.90;;;;;;4984951;28;20428;-71
2024/01/31 01:20:01;;;;;;;13.33;9.20;;;10.30;99.90;;;;;;5000918;28;20914;-71
2024/01/31 01:22:30;;;;;;;13.10;9.60;;;10.30;99.90;;;;;;5000743;28;20461;-71
2024/01/31 01:24:56;;;;;;;16.27;10.10;;;10.30;99.90;;;;;;4992500;28;20528;-71
2024/01/31 01:27:22;;;;;;;13.67;10.10;;;10.30;99.90;;;;;;4997074;28;20469;-71
2024/01/31 01:29:48;;;;;;;14.63;8.97;;;10.30;99.90;;;;;;4996801;28;20512;-71
2024/01/31 01:32:14;;;;;;;12.13;9.47;;;10.30;99.90;;;;;;4986100;28;20718;-70
2024/01/31 01:34:45;;;;;;;13.27;8.50;;;10.30;99.90;;;;;;5000305;28;21010;-72
2024/01/31 01:37:15;;;;;;;13.37;10.10;;;10.30;99.90;;;;;;5000467;28;20421;-71
2024/01/31 01:39:43;;;;;;;14.10;8.70;;;10.30;99.90;;;;;;4984357;28;20553;-70
2024/01/31 01:42:12;;;;;;;11.37;8.43;;;10.30;99.90;;;;;;5000869;28;20571;-70
2024/01/31 01:44:46;;;;;;;12.60;9.00;;;10.30;99.90;;;;;;4984471;28;20444;-72
2024/01/31 01:47:13;;;;;;;13.30;9.10;;;10.30;99.90;;;;;;5002523;28;20412;-71
2024/01/31 01:49:42;;;;;;;13.60;9.27;;;10.30;99.90;;;;;;5002693;28;20421;-71
2024/01/31 01:52:12;;;;;;;12.70;7.70;;;10.30;99.90;;;;;;4985336;28;20479;-71
2024/01/31 01:54:39;;;;;;;9.60;7.50;;;10.30;99.90;;;;;;4981027;28;20434;-71
2024/01/31 01:57:06;;;;;;;11.10;7.87;;;10.30;99.90;;;;;;4980683;28;20460;-71
2024/01/31 01:59:38;;;;;;;9.33;8.07;;;10.30;99.90;;;;;;4997428;28;20423;-71
2024/01/31 02:02:10;;;;;;;9.23;7.70;;;10.30;99.90;;;;;;4981617;28;21024;-71
2024/01/31 02:04:38;;;;;;;11.17;6.80;;;10.30;99.90;;;;;;4985059;28;20551;-71
2024/01/31 02:07:11;;;;;;;12.07;7.90;;;10.20;99.90;;;;;;4985844;28;20987;-71
2024/01/31 02:09:41;;;;;;;9.50;6.93;;;10.20;99.90;;;;;;5002228;28;20415;-71
2024/01/31 02:12:10;;;;;;;9.33;6.90;;;10.20;99.90;;;;;;5003367;28;20417;-71
2024/01/31 02:14:37;;;;;;;8.60;6.70;;;10.20;99.90;;;;;;5002923;28;20456;-71
2024/01/31 02:17:05;;;;;;;9.80;6.93;;;10.20;99.90;;;;;;4971251;28;20979;-70
2024/01/31 02:19:31;;;;;;;8.67;6.87;;;10.20;99.90;;;;;;5006668;28;20429;-72
2024/01/31 02:22:03;;;;;;;8.27;6.53;;;10.20;99.90;;;;;;4987851;28;20429;-71
2024/01/31 02:24:36;;;;;;;11.30;6.10;;;10.20;99.90;;;;;;5004123;28;20440;-71
2024/01/31 02:27:02;;;;;;;10.37;7.33;;;10.20;99.90;;;;;;5002214;28;21328;-71
2024/01/31 02:29:32;;;;;;;7.80;6.27;;;10.20;99.90;;;;;;5002700;28;20455;-71
2024/01/31 02:31:58;;;;;;;9.90;6.67;;;10.20;99.90;;;;;;5003011;28;20444;-71
2024/01/31 02:34:26;;;;;;;9.90;7.53;;;10.20;99.90;;;;;;5000853;28;20428;-71
2024/01/31 02:36:52;;;;;;;9.73;6.57;;;10.20;99.90;;;;;;5001967;28;20868;-71
2024/01/31 02:39:19;;;;;;;8.80;6.23;;;10.20;99.90;;;;;;5000594;28;20502;-70
2024/01/31 02:41:47;;;;;;;7.90;6.00;;;10.20;99.90;;;;;;4999537;28;20456;-70
2024/01/31 02:44:16;;;;;;;8.37;6.10;;;10.20;99.90;;;;;;5000036;28;20531;-71
2024/01/31 02:46:47;;;;;;;6.70;5.47;;;10.20;99.90;;;;;;4983408;28;20524;-71
2024/01/31 02:49:13;;;;;;;10.80;7.30;;;10.20;99.90;;;;;;5001345;28;20460;-71
2024/01/31 02:51:39;;;;;;;9.37;6.13;;;10.20;99.90;;;;;;5002189;28;20423;-71
2024/01/31 02:54:08;;;;;;;14.17;6.30;;;10.20;99.90;;;;;;5000654;28;20436;-71
2024/01/31 02:56:34;;;;;;;8.77;5.73;;;10.20;99.90;;;;;;4999493;28;20459;-70
2024/01/31 02:59:00;;;;;;;7.97;5.93;;;10.20;99.90;;;;;;4999141;28;20456;-71
2024/01/31 03:01:28;;;;;;;6.60;5.70;;;10.20;99.90;;;;;;4998650;28;20424;-71
2024/01/31 03:03:54;;;;;;;9.90;6.40;;;10.20;99.90;;;;;;4998949;28;20440;-71
2024/01/31 03:06:22;;;;;;;8.77;6.10;;;10.20;99.90;;;;;;4983691;28;20463;-71
2024/01/31 03:08:50;;;;;;;9.70;6.10;;;10.20;99.90;;;;;;4999436;28;20217;-71
2024/01/31 03:11:20;;;;;;;8.80;5.50;;;10.20;99.90;;;;;;5001206;28;20431;-70
2024/01/31 03:13:50;;;;;;;7.77;4.93;;;10.20;99.90;;;;;;5000089;28;20419;-71
2024/01/31 03:16:16;;;;;;;7.37;5.23;;;10.10;99.90;;;;;;4999242;28;20459;-71
2024/01/31 03:18:45;;;;;;;10.07;6.50;;;10.20;99.90;;;;;;4999879;28;21089;-71
2024/01/31 03:21:13;;;;;;;4.77;4.27;;;10.10;99.90;;;;;;4984253;28;20429;-71
2024/01/31 03:23:39;;;;;;;7.57;5.57;;;10.10;99.90;;;;;;5000054;28;20817;-71
2024/01/31 03:26:05;;;;;;;6.70;5.30;;;10.10;99.90;;;;;;4999834;28;20443;-71
2024/01/31 03:28:32;;;;;;;10.93;5.50;;;10.10;99.90;;;;;;4999009;28;21022;-70
2024/01/31 03:31:00;;;;;;;7.63;5.30;;;10.10;99.90;;;;;;4999726;28;20448;-71
2024/01/31 03:33:28;;;;;;;6.97;4.97;;;10.10;99.90;;;;;;4982521;28;20788;-70
2024/01/31 03:35:59;;;;;;;8.17;4.47;;;10.10;99.90;;;;;;4982601;28;20951;-71
2024/01/31 03:38:25;;;;;;;6.97;5.37;;;10.10;99.90;;;;;;4983814;28;20820;-71
2024/01/31 03:40:51;;;;;;;6.97;4.90;;;10.10;99.90;;;;;;4967183;28;20437;-71
2024/01/31 03:43:17;;;;;;;5.93;5.33;;;10.10;99.90;;;;;;5000837;28;20445;-71
2024/01/31 03:45:43;;;;;;;5.20;4.70;;;10.10;99.90;;;;;;4997961;28;20590;-71
2024/01/31 03:48:09;;;;;;;6.53;4.73;;;10.10;99.90;;;;;;5000345;28;21307;-71
2024/01/31 03:50:35;;;;;;;9.73;5.17;;;10.10;99.90;;;;;;4998337;28;21345;-71
2024/01/31 03:53:02;;;;;;;9.00;4.90;;;10.10;99.90;;;;;;4983905;28;20465;-71
2024/01/31 03:55:28;;;;;;;8.23;5.80;;;10.10;99.90;;;;;;4969296;28;20483;-71
2024/01/31 03:57:54;;;;;;;6.93;4.90;;;10.10;99.90;;;;;;4989372;28;20822;-72
2024/01/31 04:00:20;;;;;;;8.80;4.73;;;10.10;99.90;;;;;;5005897;28;20450;-72
2024/01/31 04:02:46;;;;;;;5.30;4.63;;;10.10;99.90;;;;;;5011900;28;20459;-72
2024/01/31 04:05:12;;;;;;;6.57;4.73;;;10.10;99.90;;;;;;4987057;28;20460;-72
2024/01/31 04:07:38;;;;;;;5.53;4.97;;;10.10;99.90;;;;;;5000571;28;20249;-72
2024/01/31 04:10:07;;;;;;;6.27;4.53;;;10.10;99.90;;;;;;5015968;28;20450;-72
2024/01/31 04:12:33;;;;;;;4.70;4.30;;;10.10;99.90;;;;;;5012311;28;20448;-72
2024/01/31 04:14:59;;;;;;;6.87;4.53;;;10.10;99.90;;;;;;5021082;28;20513;-72
2024/01/31 04:17:31;;;;;;;5.60;4.17;;;10.10;99.90;;;;;;5019076;28;21568;-72
2024/01/31 04:19:59;;;;;;;8.00;4.90;;;10.10;99.90;;;;;;5017529;28;20451;-72
2024/01/31 04:22:27;;;;;;;6.43;4.70;;;10.10;99.90;;;;;;4999174;28;20536;-72
2024/01/31 04:24:53;;;;;;;6.47;4.70;;;10.10;99.90;;;;;;5002636;28;20545;-72
2024/01/31 04:27:23;;;;;;;4.50;4.10;;;10.10;99.90;;;;;;5007747;28;20464;-72
2024/01/31 04:29:54;;;;;;;7.23;4.00;;;10.10;99.90;;;;;;5020329;28;20436;-72
2024/01/31 04:32:25;;;;;;;4.40;4.00;;;10.00;99.90;;;;;;4996682;28;20461;-72
2024/01/31 04:34:51;;;;;;;5.50;4.90;;;10.00;99.90;;;;;;5008886;28;20447;-72
2024/01/31 04:37:20;;;;;;;5.47;4.93;;;10.10;99.90;;;;;;4997168;28;20477;-72
2024/01/31 04:39:50;;;;;;;5.30;4.40;;;10.00;99.90;;;;;;5014620;28;21004;-72
2024/01/31 04:42:16;;;;;;;6.47;4.50;;;10.00;99.90;;;;;;4993789;28;20967;-72
2024/01/31 04:44:45;;;;;;;5.87;4.03;;;10.00;99.90;;;;;;5015716;28;21022;-72
2024/01/31 04:47:12;;;;;;;6.87;4.00;;;10.00;99.90;;;;;;4993989;28;20454;-72
2024/01/31 04:49:39;;;;;;;5.80;4.13;;;10.00;99.90;;;;;;5005581;28;20452;-72
2024/01/31 04:52:08;;;;;;;5.50;4.43;;;10.00;99.90;;;;;;5012916;28;20439;-72
2024/01/31 04:54:40;;;;;;;5.73;4.23;;;10.00;99.90;;;;;;5015396;28;20514;-73
2024/01/31 04:57:08;;;;;;;6.03;4.13;;;10.00;99.90;;;;;;5005110;28;20421;-73
2024/01/31 04:59:43;;;;;;;5.50;4.13;;;10.00;99.90;;;;;;5010288;28;20891;-72
2024/01/31 05:02:11;;;;;;;6.70;4.50;;;10.00;99.90;;;;;;4977237;28;20468;-73
2024/01/31 05:04:39;;;;;;;6.07;4.43;;;10.00;99.90;;;;;;5001855;28;20547;-73
2024/01/31 05:07:10;;;;;;;4.70;3.87;;;10.00;99.90;;;;;;5008570;28;20432;-72
2024/01/31 05:09:39;;;;;;;5.60;4.17;;;10.00;99.90;;;;;;5007775;28;20899;-73
2024/01/31 05:12:05;;;;;;;6.87;4.00;;;10.00;99.90;;;;;;5016836;28;20535;-73
2024/01/31 05:14:34;;;;;;;6.03;3.50;;;10.00;99.90;;;;;;5012490;28;21318;-73
2024/01/31 05:17:02;;;;;;;6.93;4.27;;;10.00;99.90;;;;;;4997526;28;20431;-73
2024/01/31 05:19:31;;;;;;;4.77;3.93;;;10.00;99.90;;;;;;5000899;28;20550;-73
2024/01/31 05:21:57;;;;;;;5.43;3.80;;;10.00;99.90;;;;;;5009960;28;20500;-73
2024/01/31 05:24:23;;;;;;;4.43;3.63;;;10.00;99.90;;;;;;5017627;28;20438;-72
2024/01/31 05:26:51;;;;;;;5.43;4.10;;;10.00;99.90;;;;;;5009971;28;20942;-73
2024/01/31 05:29:17;;;;;;;5.93;3.83;;;10.00;99.90;;;;;;5013680;28;20481;-73
2024/01/31 05:31:46;;;;;;;6.97;3.53;;;10.00;99.90;;;;;;5009102;28;20439;-73
2024/01/31 05:34:12;;;;;;;8.13;4.70;;;10.00;99.90;;;;;;4989991;28;20432;-73
2024/01/31 05:36:43;;;;;;;5.10;3.63;;;10.00;99.90;;;;;;5010786;28;20452;-73
2024/01/31 05:39:11;;;;;;;8.33;4.90;;;10.00;99.90;;;;;;5007715;28;20428;-73
2024/01/31 05:41:42;;;;;;;6.27;3.90;;;10.00;99.90;;;;;;5010884;28;20460;-74
2024/01/31 05:44:11;;;;;;;7.43;4.00;;;10.00;99.90;;;;;;5009953;28;20811;-74
2024/01/31 05:46:44;;;;;;;6.73;4.10;;;10.00;99.90;;;;;;5010039;28;20502;-73
2024/01/31 05:49:10;;;;;;;4.50;4.10;;;9.90;99.90;;;;;;4995281;28;20475;-72
2024/01/31 05:51:36;;;;;;;6.57;4.20;;;9.90;99.90;;;;;;5006706;28;20503;-75
2024/01/31 05:54:04;;;;;;;5.60;4.07;;;9.90;99.90;;;;;;5010197;28;20998;-74
2024/01/31 05:56:35;;;;;;;4.97;3.60;;;9.90;99.90;;;;;;5009413;28;20452;-75
2024/01/31 05:59:01;;;;;;;5.93;4.07;;;9.90;99.90;;;;;;5007422;28;21370;-74
2024/01/31 06:01:29;;;;;;;4.37;3.97;;;9.90;99.90;;;;;;4997552;28;21205;-73
2024/01/31 06:03:54;;;;;;;4.83;4.00;;;9.90;99.90;;;;;;4975159;28;21018;-74
2024/01/31 06:06:22;;;;;;;5.93;3.90;;;9.90;99.90;;;;;;5005605;28;20510;-74
2024/01/31 06:08:50;;;;;;;6.13;3.87;;;9.90;99.90;;;;;;4999549;28;20517;-74
2024/01/31 06:11:19;;;;;;;4.97;4.23;;;9.90;99.90;;;;;;4994539;28;20465;-74
2024/01/31 06:13:47;;;;;;;6.23;4.17;;;9.90;99.90;;;;;;4962550;28;20450;-75
2024/01/31 06:16:15;;;;;;;6.23;4.17;;;9.90;99.90;;;;;;4989377;28;21022;-75
2024/01/31 06:18:43;;;;;;;9.50;5.47;;;9.90;99.90;;;;;;5006490;28;20872;-74
2024/01/31 06:21:09;;;;;;;7.03;4.30;;;9.90;99.90;;;;;;5005665;28;20476;-74
2024/01/31 06:23:35;;;;;;;5.60;4.47;;;9.90;99.90;;;;;;4995942;28;20546;-74
2024/01/31 06:26:04;;;;;;;6.47;4.07;;;9.90;99.90;;;;;;4977381;28;20487;-74
2024/01/31 06:28:31;;;;;;;5.40;4.20;;;9.90;99.90;;;;;;5009401;28;21125;-74
2024/01/31 06:31:13;;;;;;;4.73;4.13;;;9.90;99.90;;;;;;5019592;28;20439;-75
2024/01/31 06:33:41;;;;;;;5.13;4.23;;;9.90;99.90;;;;;;4999049;28;20515;-74
2024/01/31 06:36:15;;;;;;;3.97;3.37;;;9.90;99.90;;;;;;5004072;28;20455;-75
2024/01/31 06:38:43;;;;;;;4.50;3.90;;;9.90;99.90;;;;;;4992651;28;20436;-71
2024/01/31 06:41:15;;;;;;;5.30;3.57;;;9.90;99.90;;;;;;5003127;28;20433;-77
2024/01/31 06:43:43;;;;;;;5.33;3.83;;;9.90;99.90;;;;;;4996148;28;20427;-72
2024/01/31 06:46:15;;;;;;;3.90;3.50;;;9.90;99.90;;;;;;4993590;28;20455;-72
2024/01/31 06:48:43;;;;;;;6.80;3.30;;;9.90;99.90;;;;;;5001831;28;21106;-72
2024/01/31 06:51:12;;;;;;;5.00;3.30;;;9.90;99.90;;;;;;4999665;28;20463;-74
2024/01/31 06:53:40;;;;;;;5.83;3.90;;;9.90;99.90;;;;;;5005349;28;20444;-74
2024/01/31 06:56:06;;;;;;;5.83;3.63;;;9.80;99.90;;;;;;5003522;28;21164;-74
2024/01/31 06:58:37;;;;;;;5.80;3.10;;;9.80;99.90;;;;;;4991992;28;21250;-74
2024/01/31 07:01:04;;;;;;;6.80;4.40;;;9.90;99.90;;;;;;4983011;28;20465;-74
2024/01/31 07:03:30;;;;;;;6.60;4.17;;;9.90;99.90;;;;;;5006660;28;20551;-71
2024/01/31 07:05:56;;;;;;;4.97;3.53;;;9.80;99.90;;;;;;4999991;28;20444;-74
2024/01/31 07:08:22;;;;;;;5.77;3.67;;;9.80;99.90;;;;;;4998758;28;20490;-75
2024/01/31 07:10:52;;;;;;;6.80;3.83;;;9.80;99.90;;;;;;4999111;28;20414;-74
2024/01/31 07:13:18;;;;;;;5.03;3.50;;;9.80;99.90;;;;;;4981966;28;20503;-73
2024/01/31 07:15:44;;;;;;;5.63;4.10;;;9.80;99.90;;;;;;4982150;28;21046;-74
2024/01/31 07:18:10;;;;;;;4.07;3.67;;;9.80;99.90;;;;;;4966120;28;20464;-73
2024/01/31 07:20:38;;;;;;;3.67;3.37;;;9.80;99.90;;;;;;4982583;28;20528;-74
2024/01/31 07:23:04;;;;;;;4.53;3.07;;;9.80;99.90;;;;;;4981739;28;20425;-75
2024/01/31 07:25:30;;;;;;;7.50;3.63;;;9.80;99.90;;;;;;4998997;28;20452;-72
2024/01/31 07:27:57;;;;;;;5.17;3.57;;;9.80;99.90;;;;;;4997672;28;20472;-75
2024/01/31 07:30:23;;;;;;;4.27;3.87;;;9.80;99.90;;;;;;5003191;28;20995;-75
2024/01/31 07:32:51;;;;;;;4.67;3.70;;;9.80;99.90;;;;;;5001577;28;20580;-74
2024/01/31 07:35:17;;;;;;;4.00;3.20;;;9.80;99.90;;;;;;4984897;28;20495;-74
2024/01/31 07:37:45;;;;;;;6.10;3.80;;;9.80;99.90;;;;;;5001019;28;20504;-73
2024/01/31 07:40:16;;;;;;;6.37;4.10;;;9.80;99.90;;;;;;4984860;28;20431;-74
2024/01/31 07:42:42;;;;;;;4.30;3.70;;;9.80;99.90;;;;;;5000905;28;20488;-73
2024/01/31 07:45:09;;;;;;;5.07;3.70;;;9.80;99.90;;;;;;4990041;28;20466;-71
2024/01/31 07:47:38;;;;;;;5.10;3.60;;;9.80;99.90;;;;;;5018760;28;20468;-74
2024/01/31 07:50:05;;;;;;;3.80;3.07;;;9.80;99.90;;;;;;5000555;28;21003;-74
2024/01/31 07:52:31;;;;;;;4.10;3.70;;;9.80;99.90;;;;;;5004225;28;20442;-73
2024/01/31 07:54:58;;;;;;;5.27;3.70;;;9.80;99.90;;;;;;5020290;28;20813;-73
2024/01/31 07:57:26;;;;;;;5.23;3.70;;;9.80;99.90;;;;;;5020261;28;20825;-73
2024/01/31 07:59:52;;;;;;;8.37;4.50;;;9.80;99.90;;;;;;5020354;28;20789;-72
2024/01/31 08:02:21;;;;;;;4.73;3.93;;;9.80;99.90;;;;;;5020062;28;20502;-73
2024/01/31 08:04:47;;;;;;;4.33;3.93;;;9.80;99.90;;;;;;5002885;28;20474;-73
2024/01/31 08:07:13;;;;;;;3.67;3.10;;;9.80;99.90;;;;;;4967779;28;20467;-72
2024/01/31 08:09:44;;;;;;;5.60;4.13;;;9.80;99.90;;;;;;4986387;28;20433;-70
2024/01/31 08:12:10;;;;;;;5.67;4.10;;;9.80;99.90;;;;;;4985436;28;20534;-73
2024/01/31 08:14:44;;;;;;;4.80;3.53;;;9.80;99.90;;;;;;4967981;28;20420;-71
2024/01/31 08:17:11;;;;;;;3.97;3.10;;;9.80;99.90;;;;;;4999948;28;20478;-73
2024/01/31 08:19:37;;;;;;;7.33;4.50;;;9.80;99.90;;;;;;4983340;28;20457;-72
2024/01/31 08:22:03;;;;;;;4.77;3.80;;;9.80;99.90;;;;;;4983040;28;20439;-71
2024/01/31 08:24:32;;;;;;;5.30;4.27;;;9.80;99.90;;;;;;4967058;28;20520;-72
2024/01/31 08:27:00;;;;;;;4.43;3.83;;;9.80;99.90;;;;;;5001331;28;20444;-73
2024/01/31 08:29:27;;;;;;;6.90;4.13;;;9.70;99.90;;;;;;4999181;28;20566;-73
2024/01/31 08:31:56;;;;;;;6.20;3.47;;;9.80;99.90;;;;;;5019123;28;20485;-71
2024/01/31 08:34:22;;;;;;;7.30;3.60;;;9.70;99.90;;;;;;5002501;28;20989;-72
2024/01/31 08:36:53;;;;;;;7.90;5.50;;;9.70;99.90;;;;;;5004420;28;20428;-73
2024/01/31 08:39:22;;;;;;;5.33;4.10;;;9.70;99.90;;;;;;5017999;28;20428;-73
2024/01/31 08:41:51;;;;;;;5.57;4.37;;;9.70;99.90;;;;;;5004153;28;20542;-73
2024/01/31 08:44:19;;;;;;;6.43;3.70;;;9.70;99.90;;;;;;4994375;28;20879;-75
2024/01/31 08:46:48;;;;;;;5.10;4.03;;;9.70;99.90;;;;;;4999493;28;20465;-72
2024/01/31 08:49:15;;;;;;;9.00;6.10;;;9.70;99.90;;;;;;5001139;28;20456;-73
2024/01/31 08:51:43;;;;;;;9.33;6.67;;;9.70;99.90;;;;;;5001372;28;20405;-73
2024/01/31 08:54:09;;;;;;;8.80;5.93;;;9.70;99.90;;;;;;4983128;28;20457;-71
2024/01/31 08:56:43;;;;;;;7.97;5.50;;;9.70;99.90;;;;;;5006937;28;20951;-73
2024/01/31 08:59:14;;;;;;;6.60;4.10;;;9.70;99.90;;;;;;5004982;28;20493;-71
2024/01/31 09:01:46;;;;;;;4.23;3.73;;;9.70;99.90;;;;;;5000650;28;20460;-71
2024/01/31 09:04:15;;;;;;;5.23;4.00;;;9.70;99.90;;;;;;4982694;28;20460;-72
2024/01/31 09:06:41;;;;;;;4.23;3.83;;;9.70;99.90;;;;;;4982852;28;20476;-73
2024/01/31 09:09:07;;;;;;;5.40;3.70;;;9.70;99.90;;;;;;4998748;28;20655;-73
2024/01/31 09:11:35;;;;;;;5.10;3.90;;;9.70;99.90;;;;;;4983818;28;20421;-72
2024/01/31 09:14:02;;;;;;;7.30;4.67;;;9.70;99.90;;;;;;4982867;28;20429;-74
2024/01/31 09:16:28;;;;;;;5.00;4.23;;;9.70;99.90;;;;;;5001780;28;20898;-72
2024/01/31 09:18:54;;;;;;;4.07;3.57;;;9.70;99.90;;;;;;4967846;28;20449;-72
2024/01/31 09:21:22;;;;;;;4.77;4.30;;;9.70;99.90;;;;;;5001993;28;20431;-72
2024/01/31 09:23:52;;;;;;;5.13;4.00;;;9.70;99.90;;;;;;4986591;28;20467;-72
2024/01/31 09:26:20;;;;;;;7.67;3.93;;;9.70;99.90;;;;;;5003503;28;20476;-73
2024/01/31 09:28:51;;;;;;;6.87;4.10;;;9.70;99.90;;;;;;4998449;28;21112;-72
2024/01/31 09:31:25;;;;;;;7.17;3.90;;;9.70;99.90;;;;;;4982800;28;20425;-72
2024/01/31 09:33:53;;;;;;;5.33;4.03;;;9.70;99.90;;;;;;4998256;28;20475;-73
2024/01/31 09:36:22;;;;;;;5.83;3.90;;;9.70;99.90;;;;;;4982377;28;21308;-72
2024/01/31 09:38:53;;;;;;;4.43;3.40;;;9.70;99.90;;;;;;4982537;28;20528;-73
2024/01/31 09:41:20;;;;;;;4.03;3.63;;;9.70;99.90;;;;;;4982560;28;20437;-72
2024/01/31 09:43:47;;;;;;;4.80;4.10;;;9.70;99.90;;;;;;5004452;28;20429;-72
2024/01/31 09:46:13;;;;;;;4.90;4.20;;;9.70;99.90;;;;;;4981230;28;20894;-71
2024/01/31 09:48:40;;;;;;;7.50;3.87;;;9.70;99.90;;;;;;4981142;28;20480;-71
2024/01/31 09:51:09;;;;;;;5.20;4.17;;;9.70;99.90;;;;;;4997943;28;20475;-74
2024/01/31 09:53:36;;;;;;;5.40;4.53;;;9.70;99.90;;;;;;4991209;28;20432;-73
2024/01/31 09:56:06;;;;;;;6.07;3.57;;;9.70;99.90;;;;;;4995280;28;20452;-72
2024/01/31 09:58:36;;;;;;;5.13;4.00;;;9.70;99.90;;;;;;4994481;28;21276;-73
2024/01/31 10:01:03;;;;;;;4.57;4.03;;;9.70;99.90;;;;;;5017438;28;20478;-71
2024/01/31 10:03:31;;;;;;;4.13;3.77;;;9.70;99.90;;;;;;4999418;23;21210;-31
2024/01/31 10:05:57;;;;;;;6.03;4.37;;;9.70;99.90;;;;;;5019685;28;20491;-34
2024/01/31 10:08:30;;;;;;;9.40;3.93;;;9.70;99.90;;;;;;5019201;28;20468;-33
2024/01/31 10:10:56;;;;;;;5.60;4.43;;;9.70;99.90;;;;;;4998588;28;20448;-31
2024/01/31 10:13:27;;;;;;;5.73;4.07;;;9.70;99.90;;;;;;4998002;28;20444;-30
2024/01/31 10:15:54;;;;;;;6.07;4.07;;;9.70;99.90;;;;;;5001071;28;20416;-32
2024/01/31 10:18:22;;;;;;;5.13;4.20;;;9.70;99.90;;;;;;5006576;28;20531;-31
2024/01/31 10:20:51;;;;;;;6.50;4.23;;;9.70;99.90;;;;;;5001937;28;20564;-32
2024/01/31 10:23:19;;;;;;;6.40;4.03;;;9.70;99.90;;;;;;4997310;28;20950;-31
2024/01/31 10:25:45;;;;;;;7.33;4.30;;;9.70;99.90;;;;;;5004336;28;20475;-34
2024/01/31 10:28:18;;;;;;;7.50;4.73;;;9.70;99.90;;;;;;5002867;28;20460;-33
2024/01/31 10:30:49;;;;;;;5.60;3.50;;;9.70;99.90;;;;;;4995974;28;20451;-29
2024/01/31 10:33:15;;;;;;;4.63;3.87;;;9.70;99.90;;;;;;4996890;28;20428;-30
2024/01/31 10:35:43;;;;;;;4.30;3.57;;;9.70;99.90;;;;;;5004553;28;20413;-32
2024/01/31 10:38:13;;;;;;;8.23;4.70;;;9.70;99.90;;;;;;5004100;28;21032;-30
2024/01/31 10:40:43;;;;;;;6.13;4.27;;;9.60;99.90;;;;;;5005499;28;20497;-28
2024/01/31 10:43:10;;;;;;;6.93;4.80;;;9.70;99.90;;;;;;5014893;28;20419;-35
2024/01/31 10:45:38;;;;;;;6.13;4.47;;;9.60;99.90;;;;;;4998579;28;20420;-33
2024/01/31 10:48:07;;;;;;;6.10;4.60;;;9.70;99.90;;;;;;4995579;28;20500;-31
2024/01/31 10:50:35;;;;;;;6.73;4.40;;;9.70;99.90;;;;;;5006322;28;20493;-30
2024/01/31 10:53:06;;;;;;;7.53;5.03;;;9.70;99.90;;;;;;5003510;28;20489;-30
2024/01/31 10:55:33;;;;;;;7.63;5.80;;;9.60;99.90;;;;;;5003371;28;20421;-35
2024/01/31 10:58:04;;;;;;;10.00;6.20;;;9.60;99.90;;;;;;4999679;28;20448;-30
2024/01/31 11:00:32;;;;;;;7.70;5.60;;;9.70;99.90;;;;;;5013205;28;20451;-28
2024/01/31 11:03:00;;;;;;;5.53;4.77;;;9.60;99.90;;;;;;4998858;28;21045;-32
2024/01/31 11:05:28;;;;;;;6.90;5.00;;;9.60;99.90;;;;;;5005914;28;20437;-30
2024/01/31 11:07:55;;;;;;;7.60;5.10;;;9.60;99.90;;;;;;4999099;28;20527;-31
2024/01/31 11:10:27;;;;;;;8.00;5.10;;;9.70;99.90;;;;;;4983717;28;20812;-36
2024/01/31 11:13:03;;;;;;;7.17;6.40;;;9.60;99.90;;;;;;4997222;28;21323;-33
2024/01/31 11:15:35;;;;;;;7.03;4.90;;;9.60;99.90;;;;;;4996733;28;20501;-31
2024/01/31 11:18:12;;;;;;;7.17;5.27;;;9.70;99.90;;;;;;5003047;28;20433;-31
2024/01/31 11:20:52;;;;;;;8.70;5.43;;;9.70;99.90;;;;;;5025290;28;20975;-34
2024/01/31 11:23:28;;;;;;;6.70;5.20;;;9.70;99.90;;;;;;4990950;28;21032;-31
2024/01/31 11:25:54;;;;;;;8.10;4.67;;;9.70;99.90;;;;;;4993140;28;20486;-33
2024/01/31 11:28:25;;;;;;;5.43;4.70;;;9.70;99.90;;;;;;4995160;28;20468;-31
2024/01/31 11:30:54;;;;;;;7.40;5.03;;;9.70;99.90;;;;;;5005892;28;20452;-31
2024/01/31 11:33:21;;;;;;;8.83;5.00;;;9.70;99.90;;;;;;5008134;28;20428;-34
2024/01/31 11:35:47;;;;;;;7.10;5.20;;;9.70;99.90;;;;;;5010408;28;20420;-33
2024/01/31 11:38:14;;;;;;;7.40;5.60;;;9.70;99.90;;;;;;4998821;28;20422;-32
2024/01/31 11:40:40;;;;;;;6.33;4.90;;;9.70;99.90;;;;;;5011084;28;20970;-34
2024/01/31 11:43:06;;;;;;;6.50;4.73;;;9.70;99.90;;;;;;4999793;28;20436;-33
2024/01/31 11:45:34;;;;;;;6.07;5.47;;;9.70;99.90;;;;;;4999121;28;21394;-32
2024/01/31 11:48:03;;;;;;;10.00;5.80;;;9.70;99.90;;;;;;5000296;28;20531;-32
2024/01/31 11:50:31;;;;;;;6.33;4.80;;;9.70;99.90;;;;;;5005266;28;20459;-30
2024/01/31 11:52:57;;;;;;;7.40;5.67;;;9.70;99.90;;;;;;4995605;28;20428;-30
2024/01/31 11:55:29;;;;;;;10.73;5.83;;;9.70;99.90;;;;;;4979068;28;20527;-29
2024/01/31 11:57:55;;;;;;;8.50;5.30;;;9.70;99.90;;;;;;4976268;28;20953;-31
2024/01/31 12:00:21;;;;;;;7.87;5.10;;;9.70;99.90;;;;;;4977815;28;20480;-29
2024/01/31 12:02:50;;;;;;;7.53;5.17;;;9.70;99.90;;;;;;5011665;28;20512;-30
2024/01/31 12:05:19;;;;;;;7.00;5.47;;;9.70;99.90;;;;;;4978846;28;20472;-30
2024/01/31 12:07:58;;;;;;;7.83;6.30;;;9.70;99.90;;;;;;4996188;28;20550;-30
2024/01/31 12:10:30;;;;;;;8.57;5.80;;;9.70;99.90;;;;;;4999311;28;20425;-33
2024/01/31 12:13:00;;;;;;;14.50;7.27;;;9.70;99.90;;;;;;5012361;28;20421;-29
2024/01/31 12:15:30;;;;;;;8.57;5.63;;;9.70;99.90;;;;;;5000290;28;20427;-32
2024/01/31 12:17:57;;;;;;;11.00;7.53;;;9.70;99.90;;;;;;5013653;28;20440;-26
2024/01/31 12:20:25;;;;;;;7.93;5.80;;;9.70;99.90;;;;;;5002036;28;20460;-31
2024/01/31 12:22:54;;;;;;;9.83;6.93;;;9.70;99.90;;;;;;5001924;28;20475;-25
2024/01/31 12:25:20;;;;;;;11.00;6.00;;;9.70;99.90;;;;;;5009795;28;20539;-28
2024/01/31 12:27:49;;;;;;;9.17;5.63;;;9.70;99.90;;;;;;4999324;28;21367;-31
2024/01/31 12:30:16;;;;;;;10.20;7.27;;;9.70;99.90;;;;;;5014513;28;20419;-30
2024/01/31 12:32:44;;;;;;;7.40;5.83;;;9.80;99.90;;;;;;5002410;28;20445;-32
2024/01/31 12:35:15;;;;;;;10.10;6.13;;;9.70;99.90;;;;;;4998930;28;20423;-31
2024/01/31 12:37:45;;;;;;;6.70;5.97;;;9.70;99.90;;;;;;5015794;28;20487;-31
2024/01/31 12:40:14;;;;;;;8.10;6.60;;;9.70;99.90;;;;;;5007908;28;20423;-29
2024/01/31 12:42:42;;;;;;;12.70;7.30;;;9.70;99.90;;;;;;5000912;28;20542;-27
2024/01/31 12:45:13;;;;;;;9.63;7.07;;;9.70;99.90;;;;;;4999817;28;20487;-32
2024/01/31 12:47:39;;;;;;;12.13;7.10;;;9.70;99.90;;;;;;4999240;28;20440;-29
2024/01/31 12:50:06;;;;;;;9.20;6.37;;;9.70;99.90;;;;;;4997687;28;20425;-31
2024/01/31 12:52:33;;;;;;;10.70;7.30;;;9.70;99.90;;;;;;4999297;28;20428;-29
2024/01/31 12:54:59;;;;;;;10.20;7.00;;;9.70;99.90;;;;;;4999439;28;20512;-30